Burns Municipal Airport
KBNO : now visible

Airfield :











YOU CAN JOIN US ON...

 
LOGIN :

Register | Disclaimer

   EN    FR    IT 

 









Legend :    VFR   Marginal VFR   IFR   Intensive IFR   Very Intensive IFR
Visi :
Ceiling :
>= 8 km
>= 3000ft
5 to 8 km
1000 to 3000 ft
1500m to 5 km
500 to 1000 ft
800 to 1500m
200 to 500 ft
< 800m
< 200 ft
Symbols :   Thunderstorms  Fog  Heavy snow  Heavy precipitations  Wind > 20 kt






- Airport Elevation : 4148 ft


KBNO - Burns Municipal

CURRENT METAR :
  • 140553Z AUTO 31006KT 10SM CLR M01/M05 A3011 RMK AO2 SLP207 T10111050 10122 21033 50007

EXPIRED METARs :
  • 140453Z AUTO 26003KT 10SM CLR M02/M06 A3011 RMK AO2 SLP217 T10221056
  • 140353Z AUTO 30005KT 10SM CLR 01/M03 A3010 RMK AO2 SLP213 T00111033

TAF KBNO
Valid from the 14 at 06:00 until the 15 at 06:00 UTC


140520Z 1406/1506 VRB03KT P6SM BKN150
FM141900 11006KT P6SM OVC120



MET'MAP, your aeronautical weather chart ! - Copyright ORBIFLY December 2007 - Disclaimer

ORBIFLY MET'MAP TEAM :

Programming & Development : Alexandra Zaïnal
Concept & Development : Baudouin d'Aumeries
Co-Development & Prog : Marc-Olivier Méhu
Technical & hardware support : Manuel Goepfert

Contact : metmap@orbifly.com




SOURCES & CREDITS :

   NOAA       Earth
Advisory